Weather forecasts are calculated to a 100 metre elevation grid, providing ultimate accuracy for high elevation routes. See the “severe weather” column for any noteworthy conditions.
For use of the snow symbols: HWC = high water content (wet snow). MWC = moderate water content. NWC = low water content (powder type). Confidence of snow accumulation is increased during incidence of NWC.


Time. Apparent Temperature Rain Cloud Dir Avg. Wind Gust. Wind Snow Accum. Chance of settle. Freezing height(beta) Dew Point Severe Weather
Tue 15th 04:00 8.0°C 0.0 mm 67% 3 mph 6 mph 0.00 cm % 1,327m 4.6°C
05:00 8.1°C mist/fog in vicinity 0.0 mm 66% 3 mph 5 mph 0.00 cm % 1,346m 4.5°C poor vis, mist
06:00 8.7°C mist/fog in vicinity 0.0 mm 69% 2 mph 5 mph 0.00 cm % 1,444m 4.7°C poor vis, mist
07:00 9.5°C mist/fog in vicinity 0.0 mm 94% 3 mph 6 mph 0.00 cm % 1,265m 4.7°C poor vis, mist
08:00 10.7°C 0.0 mm 100% 5 mph 9 mph 0.00 cm % 1,072m 4.5°C
09:00 11.7°C 0.0 mm 100% 4 mph 8 mph 0.00 cm % 1,165m 4.5°C
10:00 12.5°C mist/fog in vicinity 0.0 mm 100% 3 mph 5 mph 0.00 cm % 1,246m 4.7°C poor vis, mist
11:00 13.4°C mist/fog in vicinity 0.0 mm 100% 2 mph 3 mph 0.00 cm % 1,343m 5.0°C poor vis, mist
12:00 14.8°C mist/fog in vicinity 0.0 mm 100% 2 mph 4 mph 0.00 cm % 1,475m 5.6°C poor vis, mist
13:00 15.7°C mist/fog in vicinity 0.0 mm 81% 2 mph 4 mph 0.00 cm % 1,573m 6.3°C poor vis, mist
14:00 16.0°C 0.0 mm 53% 4 mph 8 mph 0.00 cm % 1,604m 6.6°C
15:00 15.2°C 0.0 mm 44% 8 mph 15 mph 0.00 cm % 1,517m 6.8°C
16:00 13.9°C 0.0 mm 38% 8 mph 16 mph 0.00 cm % 1,388m 6.3°C
17:00 13.7°C 0.0 mm 34% 5 mph 9 mph 0.00 cm % 1,368m 5.7°C
18:00 13.7°C 0.0 mm 34% 4 mph 8 mph 0.00 cm % 1,368m 5.7°C
19:00 13.3°C 0.0 mm 57% 4 mph 8 mph 0.00 cm % 1,332m 6.1°C
20:00 12.4°C 0.0 mm 64% 4 mph 9 mph 0.00 cm % 1,243m 5.4°C
21:00 12.0°C 0.0 mm 74% 6 mph 12 mph 0.00 cm % 1,202m 5.8°C
22:00 11.7°C 0.0 mm 76% 8 mph 15 mph 0.00 cm % 1,561m 6.7°C
23:00 11.2°C 0.0 mm 62% 7 mph 14 mph 0.00 cm % 1,496m 6.4°C
Wed 16th 00:00 10.9°C 0.0 mm 53% 7 mph 13 mph 0.00 cm % 1,453m 6.3°C
01:00 10.7°C 0.0 mm 98% 7 mph 14 mph 0.00 cm % 1,425m 6.1°C
02:00 10.3°C 0.0 mm 99% 8 mph 15 mph 0.00 cm % 1,375m 5.5°C
03:00 9.9°C 0.0 mm 90% 8 mph 16 mph 0.00 cm % 1,320m 5.3°C
04:00 9.6°C 0.0 mm 73% 9 mph 17 mph 0.00 cm % 1,276m 5.0°C
05:00 10.0°C 0.0 mm 77% 9 mph 18 mph 0.00 cm % 1,328m 5.2°C
06:00 11.3°C 0.0 mm 66% 10 mph 19 mph 0.00 cm % 1,508m 6.1°C
07:00 12.9°C 0.0 mm 17% 10 mph 20 mph 0.00 cm % 1,725m 7.3°C
08:00 14.3°C 0.0 mm 30% 9 mph 17 mph 0.00 cm % 1,901m 8.5°C
09:00 15.3°C 0.0 mm 38% 7 mph 13 mph 0.00 cm % 1,528m 9.1°C
10:00 16.0°C 0.0 mm 44% 5 mph 11 mph 0.00 cm % 1,602m 9.6°C
11:00 15.4°C 0.0 mm 55% 7 mph 14 mph 0.00 cm % 2,057m 10.0°C
12:00 13.6°C 0.0 mm 62% 10 mph 20 mph 0.00 cm % 2,270m 10.0°C
13:00 13.0°C 0.0 mm 100% 9 mph 17 mph 0.00 cm % 2,165m 10.2°C
14:00 12.8°C 0.0 mm 100% 9 mph 18 mph 0.00 cm % 2,127m 10.0°C
15:00 11.4°C 0.0 mm 100% 11 mph 21 mph 0.00 cm % 1,905m 9.2°C
16:00 10.7°C 0.0 mm 100% 10 mph 18 mph 0.00 cm % 1,777m 8.3°C
17:00 10.6°C 0.0 mm 100% 9 mph 18 mph 0.00 cm % 1,762m 7.2°C
18:00 10.6°C 0.0 mm 100% 8 mph 15 mph 0.00 cm % 1,771m 6.6°C
19:00 10.7°C 0.0 mm 100% 6 mph 12 mph 0.00 cm % 1,420m 6.5°C
20:00 10.5°C 0.0 mm 100% 7 mph 13 mph 0.00 cm % 1,744m 6.5°C
21:00 10.4°C 0.0 mm 100% 6 mph 12 mph 0.00 cm % 1,384m 6.2°C
22:00 10.3°C 0.0 mm 97% 6 mph 11 mph 0.00 cm % 1,372m 6.1°C
23:00 10.2°C 0.0 mm 96% 5 mph 10 mph 0.00 cm % 1,355m 6.0°C
Thu 17th 00:00 9.5°C 0.0 mm 93% 5 mph 9 mph 0.00 cm % 1,583m 5.9°C
01:00 9.2°C 0.0 mm 100% 6 mph 12 mph 0.00 cm % 1,538m 6.0°C
02:00 9.0°C 0.0 mm 94% 6 mph 13 mph 0.00 cm % 1,500m 6.0°C
03:00 9.0°C 0.0 mm 96% 6 mph 11 mph 0.00 cm % 1,505m 5.6°C
04:00 9.7°C 0.0 mm 97% 4 mph 8 mph 0.00 cm % 1,290m 5.1°C
05:00 10.0°C 0.0 mm 97% 6 mph 12 mph 0.00 cm % 1,336m 5.2°C
06:00 9.9°C light rain 0.3 mm 98% 7 mph 14 mph 0.00 cm % 1,656m 6.1°C
07:00 10.0°C rainfall in vicinity 0.2 mm 100% 6 mph 12 mph 0.00 cm % 1,673m 6.2°C
08:00 10.5°C 0.0 mm 100% 8 mph 15 mph 0.00 cm % 1,401m 6.3°C
09:00 11.1°C 0.0 mm 100% 8 mph 16 mph 0.00 cm % 1,479m 6.3°C
10:00 11.5°C 0.0 mm 100% 10 mph 19 mph 0.00 cm % 1,537m 6.1°C
11:00 11.6°C 0.0 mm 100% 12 mph 22 mph 0.00 cm % 1,550m 6.4°C
12:00 11.6°C 0.0 mm 100% 12 mph 24 mph 0.00 cm % 1,552m 6.8°C
13:00 12.4°C 0.0 mm 100% 13 mph 26 mph 0.00 cm % 1,655m 7.2°C
14:00 13.1°C 0.0 mm 100% 14 mph 26 mph 0.00 cm % 1,744m 7.3°C
15:00 13.0°C 0.0 mm 89% 13 mph 26 mph 0.00 cm % 1,736m 7.0°C
16:00 12.7°C 0.0 mm 79% 14 mph 28 mph 0.00 cm % 1,696m 6.7°C
17:00 12.4°C 0.0 mm 65% 15 mph 28 mph 0.00 cm % 1,237m 6.0°C
18:00 12.0°C 0.0 mm 57% 14 mph 28 mph 0.00 cm % 1,199m 5.8°C
19:00 11.5°C 0.0 mm 20% 13 mph 26 mph 0.00 cm % 1,148m 5.3°C
20:00 10.9°C 0.0 mm 32% 13 mph 25 mph 0.00 cm % 1,450m 5.7°C
21:00 10.4°C 0.0 mm 34% 14 mph 27 mph 0.00 cm % 1,380m 5.8°C
22:00 10.1°C 0.0 mm 31% 16 mph 31 mph 0.00 cm % 1,680m 6.1°C
23:00 10.1°C 0.0 mm 45% 16 mph 31 mph 0.00 cm % 1,677m 6.7°C
Fri 18th 00:00 10.4°C 0.0 mm 54% 16 mph 31 mph 0.00 cm % 1,730m 6.8°C
01:00 10.2°C 0.0 mm 88% 16 mph 32 mph 0.00 cm % 1,705m 6.6°C
02:00 9.8°C 0.0 mm 94% 15 mph 28 mph 0.00 cm % 1,637m 6.4°C
03:00 9.3°C 0.0 mm 96% 11 mph 22 mph 0.00 cm % 1,556m 6.1°C
04:00 8.9°C 0.0 mm 92% 10 mph 20 mph 0.00 cm % 1,477m 5.9°C
05:00 9.1°C 0.0 mm 92% 9 mph 17 mph 0.00 cm % 1,510m 5.7°C
06:00 9.8°C 0.0 mm 93% 7 mph 14 mph 0.00 cm % 1,310m 5.6°C
07:00 10.7°C 0.0 mm 73% 7 mph 13 mph 0.00 cm % 1,421m 5.7°C
08:00 11.4°C 0.0 mm 85% 5 mph 10 mph 0.00 cm % 1,519m 6.0°C
09:00 12.3°C 0.0 mm 90% 5 mph 9 mph 0.00 cm % 1,644m 6.3°C
10:00 13.4°C 0.0 mm 92% 5 mph 9 mph 0.00 cm % 1,340m 6.8°C
11:00 13.3°C 0.0 mm 94% 6 mph 12 mph 0.00 cm % 1,332m 6.5°C
12:00 13.9°C 0.0 mm 95% 7 mph 14 mph 0.00 cm % 1,392m 6.5°C
13:00 15.0°C 0.0 mm 96% 8 mph 15 mph 0.00 cm % 1,504m 6.6°C
14:00 14.9°C 0.0 mm 98% 9 mph 17 mph 0.00 cm % 1,486m 6.7°C
15:00 15.3°C 0.0 mm 99% 10 mph 19 mph 0.00 cm % 1,532m 6.7°C
16:00 15.1°C 0.0 mm 99% 10 mph 20 mph 0.00 cm % 1,510m 7.1°C
17:00 14.3°C 0.0 mm 99% 10 mph 19 mph 0.00 cm % 1,433m 6.9°C
18:00 13.6°C 0.0 mm 99% 10 mph 19 mph 0.00 cm % 1,361m 6.8°C
19:00 12.8°C 0.0 mm 100% 9 mph 17 mph 0.00 cm % 1,284m 6.4°C
20:00 12.3°C 0.0 mm 100% 9 mph 17 mph 0.00 cm % 1,225m 6.1°C
21:00 11.6°C 0.0 mm 100% 9 mph 17 mph 0.00 cm % 1,540m 5.6°C
22:00 11.2°C 0.0 mm 100% 9 mph 17 mph 0.00 cm % 1,492m 5.4°C
23:00 10.6°C 0.0 mm 100% 8 mph 15 mph 0.00 cm % 1,408m 5.0°C
Sat 19th 00:00 10.0°C 0.0 mm 100% 6 mph 12 mph 0.00 cm % 1,335m 4.6°C
01:00 10.0°C 0.0 mm 100% 6 mph 11 mph 0.00 cm % 1,332m 4.4°C
02:00 10.0°C 0.0 mm 100% 6 mph 12 mph 0.00 cm % 1,327m 4.2°C
03:00 9.7°C 0.0 mm 100% 7 mph 14 mph 0.00 cm % 1,296m 4.3°C

Accurate travel and weather information for the Peak District